createdAt,value
2018-04-19T00:00:40.536Z,28.43
2018-04-19T00:03:08.970Z,25.20
2018-04-19T00:05:37.338Z,23.50
2018-04-19T00:08:05.740Z,25.07
2018-04-19T00:10:34.213Z,25.00
2018-04-19T00:13:02.833Z,25.03
2018-04-19T00:15:32.101Z,26.80
2018-04-19T00:18:01.282Z,26.90
2018-04-19T00:20:29.694Z,25.93
2018-04-19T00:22:58.824Z,27.47
2018-04-19T00:25:27.308Z,25.20
2018-04-19T00:27:55.793Z,24.33
2018-04-19T00:30:24.170Z,25.37
2018-04-19T00:32:52.656Z,26.10
2018-04-19T00:35:21.085Z,22.60
2018-04-19T00:37:49.865Z,23.77
2018-04-19T00:40:18.261Z,27.00
2018-04-19T00:42:47.439Z,23.43
2018-04-19T00:45:15.814Z,28.67
2018-04-19T00:47:44.171Z,24.53
2018-04-19T00:50:12.636Z,27.03
2018-04-19T00:52:58.851Z,24.63
2018-04-19T00:55:27.245Z,28.80
2018-04-19T00:57:55.630Z,26.73
2018-04-19T01:00:23.975Z,23.83
2018-04-19T01:02:52.357Z,24.67
2018-04-19T01:05:20.708Z,24.67
2018-04-19T01:07:49.061Z,25.90
2018-04-19T01:10:18.201Z,26.97
2018-04-19T01:12:46.586Z,28.25
2018-04-19T01:15:15.051Z,26.07
2018-04-19T01:17:43.401Z,27.43
2018-04-19T01:20:12.508Z,29.40
2018-04-19T01:22:40.863Z,29.67
2018-04-19T01:25:09.228Z,28.13
2018-04-19T01:27:37.605Z,28.10
2018-04-19T01:30:05.955Z,28.80
2018-04-19T01:32:34.347Z,26.80
2018-04-19T01:35:02.681Z,30.00
2018-04-19T01:37:31.904Z,31.67
2018-04-19T01:40:00.301Z,29.07
2018-04-19T01:42:28.669Z,34.47
2018-04-19T01:44:57.093Z,32.33
2018-04-19T01:47:26.245Z,33.77
2018-04-19T01:49:54.591Z,32.90
2018-04-19T01:52:22.944Z,31.87
2018-04-19T01:54:51.288Z,32.80
2018-04-19T01:57:19.657Z,33.47
2018-04-19T01:59:48.764Z,34.33
2018-04-19T02:02:17.114Z,32.77
2018-04-19T02:04:45.546Z,30.43
2018-04-19T02:07:14.669Z,32.17
2018-04-19T02:09:43.779Z,34.47
2018-04-19T02:12:12.629Z,31.10
2018-04-19T02:14:40.977Z,33.75
2018-04-19T02:17:09.766Z,33.53
2018-04-19T02:19:38.128Z,35.10
2018-04-19T02:22:06.528Z,35.20
2018-04-19T02:24:34.891Z,34.80
2018-04-19T02:27:03.250Z,34.87
2018-04-19T02:29:31.606Z,34.70
2018-04-19T02:32:01.914Z,34.60
2018-04-19T02:34:30.406Z,36.27
2018-04-19T02:36:59.563Z,36.53
2018-04-19T02:39:27.944Z,34.67
2018-04-19T02:41:56.372Z,37.27
2018-04-19T02:44:25.527Z,35.60
2018-04-19T02:46:53.873Z,36.90
2018-04-19T02:49:22.234Z,37.47
2018-04-19T02:51:51.352Z,38.07
2018-04-19T02:54:19.706Z,37.40
2018-04-19T02:56:49.061Z,40.05
2018-04-19T02:59:17.435Z,40.33
2018-04-19T03:01:45.771Z,39.97
2018-04-19T03:04:14.366Z,40.47
2018-04-19T03:06:43.147Z,37.77
2018-04-19T03:09:11.509Z,41.93
2018-04-19T03:11:40.668Z,38.90
2018-04-19T03:14:09.071Z,40.50
2018-04-19T03:16:38.223Z,38.27
2018-04-19T03:19:06.714Z,37.40
2018-04-19T03:21:35.098Z,37.33
2018-04-19T03:24:03.503Z,36.53
2018-04-19T03:26:31.942Z,38.13
2018-04-19T03:29:00.386Z,42.27
2018-04-19T03:31:28.910Z,43.17
2018-04-19T03:33:57.261Z,40.93
2018-04-19T03:36:25.665Z,40.47
2018-04-19T03:38:54.006Z,42.67
2018-04-19T03:41:23.146Z,37.07
2018-04-19T03:43:51.515Z,42.37
2018-04-19T03:46:19.857Z,39.87
2018-04-19T03:48:49.031Z,41.73
2018-04-19T03:51:17.367Z,38.00
2018-04-19T03:53:45.726Z,38.50
2018-04-19T03:56:14.093Z,40.40
2018-04-19T03:58:42.468Z,39.43
2018-04-19T04:01:11.678Z,39.33
2018-04-19T04:03:39.992Z,39.23
2018-04-19T04:06:08.350Z,37.20
2018-04-19T04:08:36.699Z,39.93
2018-04-19T04:11:05.857Z,36.50
2018-04-19T04:13:34.951Z,37.20
2018-04-19T04:16:03.341Z,36.03
2018-04-19T04:18:49.572Z,34.77
2018-04-19T04:21:18.760Z,38.20
2018-04-19T04:23:53.934Z,38.90
2018-04-19T04:26:22.996Z,37.57
2018-04-19T04:28:52.122Z,39.97
2018-04-19T04:31:20.555Z,38.50
2018-04-19T04:33:49.012Z,39.37
2018-04-19T04:36:17.504Z,35.73
2018-04-19T04:38:45.873Z,36.40
2018-04-19T04:41:14.342Z,39.43
2018-04-19T04:43:42.860Z,39.10
2018-04-19T04:46:12.625Z,36.80
2018-04-19T04:48:41.010Z,37.50
2018-04-19T04:51:09.410Z,33.30
2018-04-19T04:53:37.791Z,38.90
2018-04-19T04:56:06.196Z,37.73
2018-04-19T04:58:35.347Z,37.00
2018-04-19T05:01:03.761Z,37.93
2018-04-19T05:03:32.164Z,38.17
2018-04-19T05:06:01.309Z,35.73
2018-04-19T05:08:30.441Z,35.07
2018-04-19T05:10:59.697Z,37.80
2018-04-19T05:13:28.060Z,39.50
2018-04-19T05:15:56.406Z,38.90
2018-04-19T05:18:24.799Z,37.37
2018-04-19T05:20:53.150Z,36.73
2018-04-19T05:23:22.261Z,38.63
2018-04-19T05:25:51.484Z,36.67
2018-04-19T05:28:19.864Z,40.57
2018-04-19T05:30:48.208Z,38.77
2018-04-19T05:33:16.651Z,40.47
2018-04-19T05:35:45.939Z,38.73
2018-04-19T05:38:14.301Z,36.83
2018-04-19T05:40:42.660Z,40.43
2018-04-19T05:43:11.821Z,36.87
2018-04-19T05:45:40.244Z,40.83
2018-04-19T05:48:10.358Z,40.83
2018-04-19T05:50:42.448Z,38.03
2018-04-19T05:53:10.793Z,40.20
2018-04-19T05:55:39.960Z,37.90
2018-04-19T05:58:08.373Z,37.77
2018-04-19T06:00:37.499Z,38.77
2018-04-19T06:03:06.021Z,42.00
2018-04-19T06:05:35.389Z,38.40
2018-04-19T06:08:03.806Z,39.33
2018-04-19T06:10:32.331Z,40.90
2018-04-19T06:13:00.812Z,39.03
2018-04-19T06:15:29.168Z,34.43
2018-04-19T06:17:58.340Z,38.23
2018-04-19T06:20:26.898Z,36.90
2018-04-19T06:22:55.262Z,36.37
2018-04-19T06:25:23.589Z,36.50
2018-04-19T06:27:52.180Z,35.67
2018-04-19T06:30:20.947Z,35.33
2018-04-19T06:32:49.627Z,34.97
2018-04-19T06:35:18.078Z,37.57
2018-04-19T06:37:46.441Z,34.83
2018-04-19T06:40:14.812Z,34.63
2018-04-19T06:42:43.193Z,33.97
2018-04-19T06:45:11.586Z,33.03
2018-04-19T06:47:39.972Z,32.20
2018-04-19T06:50:08.349Z,31.47
2018-04-19T06:52:37.544Z,31.63
2018-04-19T06:55:06.867Z,31.30
2018-04-19T06:57:35.242Z,31.80
2018-04-19T07:00:04.108Z,30.63
2018-04-19T07:02:33.568Z,31.53
2018-04-19T07:05:01.973Z,30.77
2018-04-19T07:07:31.137Z,31.17
2018-04-19T07:09:59.761Z,31.17
2018-04-19T07:12:28.881Z,30.37
2018-04-19T07:14:57.265Z,29.57
2018-04-19T07:17:25.804Z,29.10
2018-04-19T07:19:54.944Z,28.50
2018-04-19T07:22:25.413Z,28.53
2018-04-19T07:24:54.550Z,30.87
2018-04-19T07:27:22.974Z,33.70
2018-04-19T07:29:51.415Z,29.90
2018-04-19T07:32:19.807Z,28.20
2018-04-19T07:34:48.177Z,27.77
2018-04-19T07:37:16.563Z,25.90
2018-04-19T07:39:45.007Z,26.43
2018-04-19T07:42:14.190Z,26.40
2018-04-19T07:44:43.352Z,26.50
2018-04-19T07:47:11.716Z,22.80
2018-04-19T07:49:40.150Z,25.90
2018-04-19T07:52:09.258Z,23.50
2018-04-19T07:54:38.410Z,22.47
2018-04-19T07:57:06.795Z,24.57
2018-04-19T07:59:35.161Z,20.30
2018-04-19T08:02:03.545Z,23.03
2018-04-19T08:04:33.051Z,24.53
2018-04-19T08:07:02.134Z,18.10
2018-04-19T08:09:30.520Z,21.87
2018-04-19T08:11:58.894Z,20.53
2018-04-19T08:14:27.286Z,20.40
2018-04-19T08:16:55.651Z,19.03
2018-04-19T08:19:24.083Z,17.30
2018-04-19T08:21:53.296Z,17.07
2018-04-19T08:24:21.702Z,21.33
2018-04-19T08:26:50.412Z,17.73
2018-04-19T08:29:18.782Z,19.90
2018-04-19T08:31:47.186Z,22.23
2018-04-19T08:34:15.568Z,19.33
2018-04-19T08:36:43.930Z,17.70
2018-04-19T08:39:12.306Z,19.43
2018-04-19T08:41:40.675Z,19.33
2018-04-19T08:44:09.053Z,19.37
2018-04-19T08:46:37.446Z,21.37
2018-04-19T08:49:06.743Z,18.67
2018-04-19T08:51:35.076Z,19.00
2018-04-19T08:54:04.143Z,17.87
2018-04-19T08:56:33.269Z,19.13
2018-04-19T08:59:01.678Z,17.93
2018-04-19T09:01:30.852Z,20.00
2018-04-19T09:03:59.931Z,20.37
2018-04-19T09:06:28.309Z,20.20
2018-04-19T09:08:56.685Z,20.27
2018-04-19T09:11:25.855Z,18.43
2018-04-19T09:13:54.204Z,17.30
2018-04-19T09:16:22.567Z,16.97
2018-04-19T09:18:50.949Z,17.30
2018-04-19T09:21:19.333Z,19.53
2018-04-19T09:23:47.694Z,16.57
2018-04-19T09:26:16.899Z,15.57
2018-04-19T09:28:45.297Z,15.50
2018-04-19T09:31:13.711Z,15.23
2018-04-19T09:33:42.837Z,16.27
2018-04-19T09:36:11.203Z,17.47
2018-04-19T09:38:40.214Z,15.77
2018-04-19T09:41:08.601Z,18.97
2018-04-19T09:43:37.693Z,19.33
2018-04-19T09:46:06.066Z,17.90
2018-04-19T09:48:35.272Z,16.90
2018-04-19T09:51:03.700Z,15.40
2018-04-19T09:53:32.130Z,15.60
2018-04-19T09:56:00.521Z,18.00
2018-04-19T09:58:28.932Z,18.40
2018-04-19T10:01:02.856Z,18.73
2018-04-19T10:03:37.496Z,17.40
2018-04-19T10:06:09.085Z,19.07
2018-04-19T10:08:37.767Z,17.93
2018-04-19T10:11:06.226Z,18.13
2018-04-19T10:13:34.569Z,19.23
2018-04-19T10:16:03.069Z,16.93
2018-04-19T10:18:31.401Z,16.67
2018-04-19T10:20:59.799Z,19.37
2018-04-19T10:23:28.159Z,17.85
2018-04-19T10:25:56.831Z,17.57
2018-04-19T10:28:25.281Z,20.48
2018-04-19T10:30:53.690Z,16.65
2018-04-19T10:33:22.804Z,17.83
2018-04-19T10:35:51.195Z,18.13
2018-04-19T10:38:19.554Z,19.60
2018-04-19T10:40:48.877Z,20.27
2018-04-19T10:43:17.282Z,18.48
2018-04-19T10:45:46.503Z,26.55
2018-04-19T10:48:14.948Z,18.37
2018-04-19T10:50:43.303Z,17.92
2018-04-19T10:53:11.769Z,19.75
2018-04-19T10:55:40.167Z,19.80
2018-04-19T10:58:08.546Z,18.27
2018-04-19T11:00:39.110Z,19.07
2018-04-19T11:03:08.252Z,20.83
2018-04-19T11:05:36.612Z,20.25
2018-04-19T11:08:05.754Z,19.95
2018-04-19T11:10:37.328Z,21.80
2018-04-19T11:13:05.707Z,20.95
2018-04-19T11:15:34.092Z,21.65
2018-04-19T11:18:04.052Z,22.42
2018-04-19T11:20:32.436Z,19.85
2018-04-19T11:23:01.082Z,20.17
2018-04-19T11:25:30.618Z,23.77
2018-04-19T11:27:58.982Z,20.58
2018-04-19T11:30:27.366Z,19.67
2018-04-19T11:32:55.757Z,15.43
2018-04-19T11:35:25.001Z,17.17
2018-04-19T11:37:53.334Z,18.35
2018-04-19T11:40:21.888Z,17.48
2018-04-19T11:42:51.011Z,13.85
2018-04-19T11:45:19.578Z,18.17
2018-04-19T11:47:47.958Z,16.00
2018-04-19T11:50:16.418Z,15.15
2018-04-19T11:52:45.579Z,17.58
2018-04-19T11:55:13.936Z,15.30
2018-04-19T11:57:43.215Z,17.87
2018-04-19T12:00:13.240Z,15.80
2018-04-19T12:05:17.713Z,14.50
2018-04-19T12:07:46.179Z,16.60
2018-04-19T12:10:15.386Z,18.50
2018-04-19T12:12:46.222Z,16.42
2018-04-19T12:15:14.891Z,14.98
2018-04-19T12:17:43.245Z,16.50
2018-04-19T12:20:12.388Z,16.65
2018-04-19T12:22:41.549Z,15.23
2018-04-19T12:25:09.928Z,17.77
2018-04-19T12:27:38.267Z,15.88
2018-04-19T12:30:06.803Z,16.75
2018-04-19T12:32:37.076Z,14.45
2018-04-19T12:35:07.893Z,13.43
2018-04-19T12:37:36.377Z,13.70
2018-04-19T12:40:04.848Z,13.32
2018-04-19T12:42:33.224Z,12.80
2018-04-19T12:45:01.976Z,11.80
2018-04-19T12:47:31.403Z,11.40
2018-04-19T12:49:59.797Z,11.95
2018-04-19T12:52:28.581Z,11.63
2018-04-19T12:54:56.972Z,12.65
2018-04-19T12:57:26.368Z,10.38
2018-04-19T12:59:54.796Z,12.45
2018-04-19T13:02:24.301Z,11.18
2018-04-19T13:04:52.858Z,9.13
2018-04-19T13:07:22.948Z,9.93
2018-04-19T13:09:52.244Z,11.63
2018-04-19T13:12:20.838Z,12.00
2018-04-19T13:14:50.242Z,11.73
2018-04-19T13:17:19.418Z,11.48
2018-04-19T13:19:49.053Z,10.27
2018-04-19T13:22:17.476Z,10.60
2018-04-19T13:24:46.924Z,8.85
2018-04-19T13:27:16.377Z,7.15
2018-04-19T13:29:44.724Z,8.40
2018-04-19T13:32:13.822Z,8.52
2018-04-19T13:34:42.672Z,8.13
2018-04-19T13:37:11.343Z,8.48
2018-04-19T13:39:41.605Z,8.52
2018-04-19T13:42:13.374Z,9.20
2018-04-19T13:44:41.782Z,10.25
2018-04-19T13:47:10.877Z,9.30
2018-04-19T13:49:40.053Z,8.65
2018-04-19T13:52:08.529Z,8.43
2018-04-19T13:54:39.089Z,7.70
2018-04-19T13:57:09.112Z,7.60
2018-04-19T13:59:41.170Z,8.77
2018-04-19T14:02:11.220Z,9.25
2018-04-19T14:04:40.327Z,8.70
2018-04-19T14:07:08.730Z,9.05
2018-04-19T14:09:38.164Z,8.38
2018-04-19T14:12:08.288Z,9.13
2018-04-19T14:14:37.447Z,9.07
2018-04-19T14:17:05.895Z,6.87
2018-04-19T14:19:37.395Z,6.90
2018-04-19T14:22:06.551Z,7.22
2018-04-19T14:24:34.962Z,6.45
2018-04-19T14:27:03.387Z,7.20
2018-04-19T14:29:32.167Z,8.52
2018-04-19T14:32:00.526Z,9.95
2018-04-19T14:34:29.848Z,7.68
2018-04-19T14:36:58.546Z,7.55
2018-04-19T14:39:26.943Z,7.70
2018-04-19T14:42:06.235Z,8.73
2018-04-19T14:44:37.006Z,8.52
2018-04-19T14:47:05.370Z,7.87
2018-04-19T14:49:34.017Z,8.63
2018-04-19T14:52:02.771Z,9.02
2018-04-19T14:54:31.671Z,9.18
2018-04-19T14:57:00.094Z,9.15
2018-04-19T14:59:29.340Z,12.15
2018-04-19T15:01:57.776Z,9.07
2018-04-19T15:04:27.732Z,8.98
2018-04-19T15:06:56.319Z,9.00
2018-04-19T15:09:24.860Z,10.10
2018-04-19T15:11:53.298Z,7.72
2018-04-19T15:14:22.368Z,7.32
2018-04-19T15:16:50.901Z,6.60
2018-04-19T15:19:23.518Z,6.85
2018-04-19T15:21:51.949Z,5.90
2018-04-19T15:24:20.511Z,6.25
2018-04-19T15:26:49.058Z,5.05
2018-04-19T15:29:17.511Z,5.82
2018-04-19T15:31:47.476Z,3.83
2018-04-19T15:34:15.923Z,4.07
2018-04-19T15:36:44.288Z,4.10
2018-04-19T15:39:13.592Z,4.05
2018-04-19T15:41:42.355Z,3.37
2018-04-19T15:44:10.824Z,3.42
2018-04-19T15:46:50.119Z,3.25
2018-04-19T15:49:18.763Z,3.35
2018-04-19T15:51:48.198Z,3.50
2018-04-19T15:54:17.443Z,4.05
2018-04-19T15:56:46.255Z,4.12
2018-04-19T15:59:14.586Z,4.82
2018-04-19T16:01:55.036Z,3.60
2018-04-19T16:04:23.338Z,4.43
2018-04-19T16:06:51.862Z,4.45
2018-04-19T16:09:20.979Z,5.60
2018-04-19T16:11:52.856Z,5.48
2018-04-19T16:14:19.297Z,5.03
2018-04-19T16:16:48.271Z,4.95
2018-04-19T16:19:18.295Z,5.65
2018-04-19T16:21:46.664Z,7.60
2018-04-19T16:24:16.049Z,6.15
2018-04-19T16:26:44.475Z,6.30
2018-04-19T16:29:12.859Z,6.62
2018-04-19T16:31:41.265Z,6.65
2018-04-19T16:34:09.703Z,5.65
2018-04-19T16:36:38.930Z,6.05
2018-04-19T16:39:07.325Z,6.17
2018-04-19T16:41:36.765Z,6.25
2018-04-19T16:44:05.146Z,6.32
2018-04-19T16:46:33.509Z,6.35
2018-04-19T16:49:04.597Z,6.47
2018-04-19T16:51:34.244Z,7.40
2018-04-19T16:54:04.160Z,6.90
2018-04-19T16:56:33.454Z,8.18
2018-04-19T16:59:01.843Z,9.07
2018-04-19T17:01:30.993Z,8.63
2018-04-19T17:03:59.805Z,7.57
2018-04-19T17:06:29.177Z,8.88
2018-04-19T17:08:58.627Z,10.90
2018-04-19T17:11:27.745Z,9.90
2018-04-19T17:13:56.937Z,10.83
2018-04-19T17:16:25.622Z,12.65
2018-04-19T17:18:54.806Z,10.52
2018-04-19T17:21:23.978Z,10.68
2018-04-19T17:23:52.392Z,10.05
2018-04-19T17:26:20.965Z,9.75
2018-04-19T17:28:50.176Z,10.13
2018-04-19T17:31:19.338Z,10.07
2018-04-19T17:33:49.088Z,11.60
2018-04-19T17:36:18.355Z,12.63
2018-04-19T17:38:48.533Z,11.40
2018-04-19T17:41:17.896Z,13.02
2018-04-19T17:43:47.225Z,12.27
2018-04-19T17:46:15.755Z,11.63
2018-04-19T17:48:44.488Z,14.87
2018-04-19T17:51:13.351Z,14.15
2018-04-19T17:53:42.851Z,15.07
2018-04-19T17:56:11.298Z,14.48
2018-04-19T17:58:39.685Z,12.85
2018-04-19T18:01:08.108Z,15.35
2018-04-19T18:03:37.323Z,16.12
2018-04-19T18:06:06.556Z,14.67
2018-04-19T18:08:34.966Z,17.12
2018-04-19T18:11:03.433Z,16.90
2018-04-19T18:13:31.932Z,15.33
2018-04-19T18:16:01.869Z,18.20
2018-04-19T18:18:31.031Z,16.73
2018-04-19T18:21:00.084Z,13.03
2018-04-19T18:23:28.460Z,14.50
2018-04-19T18:25:57.072Z,13.60
2018-04-19T18:28:25.501Z,13.43
2018-04-19T18:30:54.634Z,15.48
2018-04-19T18:33:23.096Z,13.20
2018-04-19T18:35:51.492Z,14.38
2018-04-19T18:38:20.575Z,16.80
2018-04-19T18:40:48.929Z,15.57
2018-04-19T18:43:18.595Z,15.40
2018-04-19T18:45:47.677Z,15.70
2018-04-19T18:48:16.121Z,14.57
2018-04-19T18:50:44.493Z,17.27
2018-04-19T18:53:13.625Z,17.15
2018-04-19T18:55:42.050Z,16.43
2018-04-19T18:58:10.977Z,16.93
2018-04-19T19:00:39.483Z,15.77
2018-04-19T19:03:08.433Z,19.40
2018-04-19T19:05:37.666Z,16.23
2018-04-19T19:08:06.095Z,16.75
2018-04-19T19:10:34.590Z,17.50
2018-04-19T19:13:03.933Z,19.73
2018-04-19T19:19:18.100Z,20.17
2018-04-19T19:21:46.583Z,19.33
2018-04-19T19:24:15.703Z,17.63
2018-04-19T19:26:45.437Z,19.60
2018-04-19T19:29:14.712Z,19.97
2018-04-19T19:31:43.789Z,15.20
2018-04-19T19:34:12.217Z,16.00
2018-04-19T19:36:41.377Z,18.13
2018-04-19T19:39:11.318Z,21.03
2018-04-19T19:41:39.714Z,17.60
2018-04-19T19:44:09.843Z,18.73
2018-04-19T19:46:38.971Z,21.37
2018-04-19T19:49:08.726Z,19.67
2018-04-19T19:51:40.484Z,22.33
2018-04-19T19:54:09.125Z,18.37
2018-04-19T19:56:42.691Z,17.83
2018-04-19T19:59:12.037Z,20.20
2018-04-19T20:01:40.410Z,19.90
2018-04-19T20:04:09.780Z,19.90
2018-04-19T20:06:39.319Z,21.03
2018-04-19T20:09:08.048Z,20.20
2018-04-19T20:11:37.652Z,19.57
2018-04-19T20:14:06.355Z,21.77
2018-04-19T20:16:35.759Z,19.03
2018-04-19T20:19:05.035Z,18.67
2018-04-19T20:21:33.515Z,19.03
2018-04-19T20:24:01.937Z,19.17
2018-04-19T20:26:31.113Z,20.33
2018-04-19T20:28:59.571Z,17.43
2018-04-19T20:31:27.961Z,20.60
2018-04-19T20:33:56.323Z,19.70
2018-04-19T20:36:24.693Z,19.83
2018-04-19T20:38:53.848Z,20.37
2018-04-19T20:41:23.148Z,20.23
2018-04-19T20:43:52.369Z,19.03
2018-04-19T20:46:21.644Z,20.97
2018-04-19T20:48:51.055Z,19.60
2018-04-19T20:51:19.473Z,20.60
2018-04-19T20:53:47.979Z,21.37
2018-04-19T20:56:16.327Z,19.73
2018-04-19T20:58:44.793Z,18.67
2018-04-19T21:01:13.981Z,19.33
2018-04-19T21:03:43.253Z,20.30
2018-04-19T21:06:12.446Z,19.50
2018-04-19T21:08:42.338Z,21.03
2018-04-19T21:11:11.561Z,20.17
2018-04-19T21:13:41.303Z,18.87
2018-04-19T21:16:09.693Z,23.23
2018-04-19T21:18:38.102Z,19.13
2018-04-19T21:21:06.518Z,19.60
2018-04-19T21:23:34.948Z,18.60
2018-04-19T21:26:03.525Z,19.37
2018-04-19T21:28:32.096Z,19.23
2018-04-19T21:31:00.623Z,15.70
2018-04-19T21:33:29.042Z,18.87
2018-04-19T21:35:57.491Z,19.43
2018-04-19T21:38:26.641Z,18.97
2018-04-19T21:40:54.977Z,18.93
2018-04-19T21:43:24.132Z,18.17
2018-04-19T21:45:52.903Z,18.63
2018-04-19T21:48:21.267Z,17.67
2018-04-19T21:50:49.656Z,18.70
2018-04-19T21:53:18.096Z,18.70
2018-04-19T21:55:46.543Z,17.23
2018-04-19T21:58:14.996Z,17.77
2018-04-19T22:00:43.450Z,17.67
2018-04-19T22:03:11.920Z,17.73
2018-04-19T22:05:41.070Z,17.60
2018-04-19T22:08:09.595Z,18.27
2018-04-19T22:10:37.973Z,20.17
2018-04-19T22:13:07.092Z,18.00
2018-04-19T22:15:35.452Z,17.70
2018-04-19T22:18:04.600Z,17.77
2018-04-19T22:20:32.960Z,17.90
2018-04-19T22:23:01.346Z,18.63
2018-04-19T22:25:29.715Z,19.00
2018-04-19T22:27:58.058Z,17.87
2018-04-19T22:30:27.434Z,17.30
2018-04-19T22:32:55.823Z,17.63
2018-04-19T22:35:25.098Z,18.23
2018-04-19T22:37:53.600Z,17.00
2018-04-19T22:40:22.030Z,17.90
2018-04-19T22:42:50.406Z,17.77
2018-04-19T22:45:18.830Z,17.43
2018-04-19T22:47:47.256Z,18.20
2018-04-19T22:50:16.627Z,16.40
2018-04-19T22:52:44.985Z,17.50
2018-04-19T22:55:13.363Z,18.10
2018-04-19T22:57:42.314Z,15.97
2018-04-19T23:00:10.717Z,16.10
2018-04-19T23:02:39.103Z,17.23
2018-04-19T23:05:07.526Z,17.83
2018-04-19T23:07:36.738Z,16.40
2018-04-19T23:10:05.255Z,17.37
2018-04-19T23:12:33.663Z,17.97
2018-04-19T23:15:02.009Z,17.50
2018-04-19T23:17:30.446Z,17.43
2018-04-19T23:19:59.469Z,17.33
2018-04-19T23:22:35.814Z,19.27
2018-04-19T23:25:04.994Z,18.13
2018-04-19T23:27:33.376Z,17.83
2018-04-19T23:30:01.807Z,18.80
2018-04-19T23:32:30.164Z,17.93
2018-04-19T23:34:58.621Z,18.27
2018-04-19T23:37:27.790Z,19.77
2018-04-19T23:39:56.374Z,18.40
2018-04-19T23:42:24.747Z,18.93
2018-04-19T23:44:53.232Z,17.33
2018-04-19T23:47:21.637Z,19.47
2018-04-19T23:49:50.784Z,19.73
2018-04-19T23:52:19.184Z,19.07
2018-04-19T23:54:47.585Z,18.03
2018-04-19T23:57:15.991Z,18.60
2018-04-19T23:59:45.154Z,19.63
